createdAt,value
2022-08-29T00:00:42.343Z,4.11
2022-08-29T00:02:43.755Z,4.11
2022-08-29T00:04:45.033Z,4.11
2022-08-29T00:06:46.709Z,4.11
2022-08-29T00:08:47.771Z,4.11
2022-08-29T00:10:48.766Z,4.11
2022-08-29T00:12:50.551Z,4.11
2022-08-29T00:14:52.325Z,4.11
2022-08-29T00:18:55.375Z,4.11
2022-08-29T00:20:56.315Z,4.11
2022-08-29T00:22:58.373Z,4.11
2022-08-29T00:24:58.275Z,4.11
2022-08-29T00:26:59.507Z,4.1
2022-08-29T00:29:01.361Z,4.11
2022-08-29T00:33:03.319Z,4.1
2022-08-29T00:35:04.475Z,4.1
2022-08-29T00:37:06.004Z,4.1
2022-08-29T00:39:08.185Z,4.1
2022-08-29T00:41:09.276Z,4.1
2022-08-29T00:43:10.737Z,4.1
2022-08-29T00:45:12.107Z,4.1
2022-08-29T00:49:15.072Z,4.1
2022-08-29T00:51:16.082Z,4.1
2022-08-29T00:53:17.573Z,4.1
2022-08-29T00:55:19.006Z,4.1
2022-08-29T00:57:20.820Z,4.1
2022-08-29T00:59:22.301Z,4.1
2022-08-29T01:03:25.273Z,4.1
2022-08-29T01:05:26.427Z,4.1
2022-08-29T01:07:28.403Z,4.1
2022-08-29T01:09:29.346Z,4.1
2022-08-29T01:11:30.384Z,4.1
2022-08-29T01:15:33.418Z,4.1
2022-08-29T01:17:35.026Z,4.1
2022-08-29T01:19:36.313Z,4.1
2022-08-29T01:21:37.901Z,4.1
2022-08-29T01:23:39.416Z,4.1
2022-08-29T01:25:40.628Z,4.1
2022-08-29T01:27:42.438Z,4.1
2022-08-29T01:29:43.762Z,4.1
2022-08-29T01:31:51.545Z,4.1
2022-08-29T01:33:46.895Z,4.1
2022-08-29T01:35:48.352Z,4.1
2022-08-29T01:37:49.804Z,4.1
2022-08-29T01:39:51.466Z,4.09
2022-08-29T01:41:52.843Z,4.1
2022-08-29T01:43:54.011Z,4.1
2022-08-29T01:47:59.893Z,4.1
2022-08-29T01:49:58.971Z,4.09
2022-08-29T01:52:00.750Z,4.09
2022-08-29T01:54:02.045Z,4.09
2022-08-29T01:58:04.704Z,4.09
2022-08-29T02:00:06.518Z,4.1
2022-08-29T02:02:08.102Z,4.09
2022-08-29T02:04:09.257Z,4.09
2022-08-29T02:06:10.336Z,4.09
2022-08-29T02:08:11.835Z,4.09
2022-08-29T02:14:16.252Z,4.09
2022-08-29T02:16:17.219Z,4.09
2022-08-29T02:18:18.405Z,4.09
2022-08-29T02:20:19.891Z,4.09
2022-08-29T02:24:25.671Z,4.09
2022-08-29T02:26:24.982Z,4.08
2022-08-29T02:28:26.496Z,4.09
2022-08-29T02:30:27.835Z,4.09
2022-08-29T02:32:29.449Z,4.09
2022-08-29T02:34:30.437Z,4.08
2022-08-29T02:36:32.069Z,4.09
2022-08-29T02:40:35.208Z,4.09
2022-08-29T02:42:36.834Z,4.08
2022-08-29T02:46:39.757Z,4.09
2022-08-29T02:48:41.304Z,4.08
2022-08-29T02:50:42.381Z,4.08
2022-08-29T02:52:44.100Z,4.08
2022-08-29T02:54:45.206Z,4.08
2022-08-29T02:56:46.674Z,4.08
2022-08-29T02:58:48.455Z,4.08
2022-08-29T03:00:49.680Z,4.08
2022-08-29T03:02:51.378Z,4.08
2022-08-29T03:04:52.859Z,4.08
2022-08-29T03:06:53.915Z,4.08
2022-08-29T03:08:54.930Z,4.08
2022-08-29T03:12:58.074Z,4.08
2022-08-29T03:14:59.398Z,4.08
2022-08-29T03:17:00.906Z,4.08
2022-08-29T03:21:04.277Z,4.08
2022-08-29T03:23:05.969Z,4.08
2022-08-29T03:25:07.628Z,4.08
2022-08-29T03:27:08.635Z,4.08
2022-08-29T03:29:10.508Z,4.08
2022-08-29T03:31:11.845Z,4.08
2022-08-29T03:33:13.339Z,4.08
2022-08-29T03:35:15.167Z,4.08
2022-08-29T03:37:16.801Z,4.08
2022-08-29T03:39:18.267Z,4.08
2022-08-29T03:43:21.122Z,4.08
2022-08-29T03:45:22.946Z,4.08
2022-08-29T03:47:23.879Z,4.08
2022-08-29T03:49:25.021Z,4.08
2022-08-29T03:51:29.471Z,4.08
2022-08-29T03:53:27.743Z,4.08
2022-08-29T03:55:29.030Z,4.08
2022-08-29T03:57:30.322Z,4.08
2022-08-29T03:59:31.513Z,4.08
2022-08-29T04:01:32.679Z,4.08
2022-08-29T04:03:34.456Z,4.07
2022-08-29T04:05:35.529Z,4.07
2022-08-29T04:07:37.081Z,4.07
2022-08-29T04:09:38.985Z,4.07
2022-08-29T04:11:40.306Z,4.07
2022-08-29T04:13:41.445Z,4.07
2022-08-29T04:17:45.617Z,4.07
2022-08-29T04:21:47.933Z,4.07
2022-08-29T04:23:49.522Z,4.07
2022-08-29T04:25:59.091Z,4.07
2022-08-29T04:27:52.379Z,4.07
2022-08-29T04:29:54.345Z,4.07
2022-08-29T04:31:56.092Z,4.07
2022-08-29T04:35:58.993Z,4.07
2022-08-29T04:38:00.332Z,4.07
2022-08-29T04:40:02.012Z,4.07
2022-08-29T04:43:13.675Z,4.07
2022-08-29T04:45:14.774Z,4.07
2022-08-29T04:47:16.287Z,4.07
2022-08-29T04:49:17.305Z,4.07
2022-08-29T04:51:18.595Z,4.07
2022-08-29T04:53:20.322Z,4.07
2022-08-29T04:55:22.649Z,4.06
2022-08-29T04:59:24.692Z,4.06
2022-08-29T05:01:27.327Z,4.07
2022-08-29T05:03:28.367Z,4.06
2022-08-29T05:05:29.825Z,4.06
2022-08-29T05:07:31.280Z,4.06
2022-08-29T05:09:32.822Z,4.06
2022-08-29T05:13:35.526Z,4.06
2022-08-29T05:15:37.113Z,4.06
2022-08-29T05:17:38.939Z,4.06
2022-08-29T05:21:42.145Z,4.07
2022-08-29T05:25:53.241Z,4.08
2022-08-29T05:27:46.967Z,4.08
2022-08-29T05:29:47.627Z,4.08
2022-08-29T05:31:49.727Z,4.08
2022-08-29T05:33:50.909Z,4.08
2022-08-29T05:35:52.127Z,4.08
2022-08-29T05:38:07.238Z,4.08
2022-08-29T05:39:55.467Z,4.08
2022-08-29T05:43:58.398Z,4.08
2022-08-29T05:45:59.788Z,4.08
2022-08-29T05:48:01.092Z,4.08
2022-08-29T05:52:03.684Z,4.09
2022-08-29T05:54:05.480Z,4.08
2022-08-29T05:56:07.326Z,4.1
2022-08-29T05:58:08.777Z,4.09
2022-08-29T06:00:09.766Z,4.1
2022-08-29T06:02:11.672Z,4.09
2022-08-29T06:04:13.336Z,4.11
2022-08-29T06:06:14.992Z,4.12
2022-08-29T06:08:17.432Z,4.13
2022-08-29T06:10:18.516Z,4.13
2022-08-29T06:12:19.774Z,4.13
2022-08-29T06:14:21.197Z,4.14
2022-08-29T06:16:22.559Z,4.14
2022-08-29T06:18:27.459Z,4.14
2022-08-29T06:22:27.344Z,4.15
2022-08-29T06:24:28.532Z,4.15
2022-08-29T06:26:29.762Z,4.16
2022-08-29T06:30:31.728Z,4.16
2022-08-29T06:34:34.852Z,4.16
2022-08-29T06:36:36.945Z,4.16
2022-08-29T06:40:40.172Z,4.17
2022-08-29T06:42:41.069Z,4.17
2022-08-29T06:44:44.468Z,4.17
2022-08-29T06:46:43.641Z,4.17
2022-08-29T06:50:45.734Z,4.18
2022-08-29T06:52:47.057Z,4.18
2022-08-29T06:54:47.923Z,4.18
2022-08-29T06:56:49.713Z,4.18
2022-08-29T06:58:51.340Z,4.18
2022-08-29T07:00:52.430Z,4.18
2022-08-29T07:02:53.450Z,4.18
2022-08-29T07:06:55.760Z,4.19
2022-08-29T07:08:56.701Z,4.19
2022-08-29T07:10:58.416Z,4.19
2022-08-29T07:15:18.254Z,4.19
2022-08-29T07:17:02.134Z,4.19
2022-08-29T07:19:03.786Z,4.19
2022-08-29T07:21:05.127Z,4.19
2022-08-29T07:23:06.111Z,4.19
2022-08-29T07:25:07.620Z,4.2
2022-08-29T07:27:08.471Z,4.19
2022-08-29T07:29:09.372Z,4.19
2022-08-29T07:31:11.144Z,4.19
2022-08-29T07:33:12.690Z,4.19
2022-08-29T07:37:15.697Z,4.19
2022-08-29T07:43:20.445Z,4.2
2022-08-29T07:45:21.320Z,4.2
2022-08-29T07:47:22.856Z,4.2
2022-08-29T07:49:25.393Z,4.2
2022-08-29T07:51:25.576Z,4.2
2022-08-29T07:53:27.002Z,4.2
2022-08-29T07:55:27.845Z,4.19
2022-08-29T07:57:29.211Z,4.19
2022-08-29T07:59:30.607Z,4.19
2022-08-29T08:01:32.095Z,4.19
2022-08-29T08:03:33.513Z,4.19
2022-08-29T08:05:34.350Z,4.19
2022-08-29T08:07:35.475Z,4.18
2022-08-29T08:09:36.870Z,4.19
2022-08-29T08:11:37.963Z,4.19
2022-08-29T08:15:40.078Z,4.19
2022-08-29T08:17:43.864Z,4.18
2022-08-29T08:19:42.475Z,4.18
2022-08-29T08:21:49.219Z,4.18
2022-08-29T08:23:45.525Z,4.18
2022-08-29T08:25:46.501Z,4.18
2022-08-29T08:27:47.979Z,4.18
2022-08-29T08:31:51.216Z,4.18
2022-08-29T08:33:52.713Z,4.18
2022-08-29T08:35:53.506Z,4.18
2022-08-29T08:37:55.151Z,4.18
2022-08-29T08:39:56.373Z,4.18
2022-08-29T08:41:57.406Z,4.18
2022-08-29T08:45:59.919Z,4.18
2022-08-29T08:50:02.687Z,4.18
2022-08-29T08:52:04.015Z,4.18
2022-08-29T08:54:05.179Z,4.18
2022-08-29T08:58:07.963Z,4.18
2022-08-29T09:00:08.786Z,4.17
2022-08-29T09:02:09.945Z,4.18
2022-08-29T09:04:10.887Z,4.18
2022-08-29T09:06:12.432Z,4.17
2022-08-29T09:08:13.259Z,4.17
2022-08-29T09:10:14.725Z,4.17
2022-08-29T09:14:17.502Z,4.17
2022-08-29T09:16:18.951Z,4.17
2022-08-29T09:18:23.852Z,4.17
2022-08-29T09:20:21.891Z,4.17
2022-08-29T09:22:23.387Z,4.17
2022-08-29T09:24:24.947Z,4.17
2022-08-29T09:28:30.029Z,4.17
2022-08-29T09:30:29.165Z,4.17
2022-08-29T09:32:30.214Z,4.17
2022-08-29T09:34:45.156Z,4.17
2022-08-29T09:36:32.656Z,4.17
2022-08-29T09:38:33.440Z,4.17
2022-08-29T09:40:42.406Z,4.17
2022-08-29T09:42:35.763Z,4.17
2022-08-29T09:44:37.389Z,4.17
2022-08-29T09:46:38.565Z,4.17
2022-08-29T09:48:40.030Z,4.17
2022-08-29T09:50:40.882Z,4.17
2022-08-29T09:52:42.317Z,4.17
2022-08-29T09:56:44.755Z,4.17
2022-08-29T09:58:45.591Z,4.17
2022-08-29T10:00:47.349Z,4.17
2022-08-29T10:02:48.240Z,4.17
2022-08-29T10:06:52.729Z,4.17
2022-08-29T10:08:51.254Z,4.17
2022-08-29T10:10:52.848Z,4.17
2022-08-29T10:12:54.192Z,4.17
2022-08-29T10:14:55.763Z,4.17
2022-08-29T10:16:57.278Z,4.16
2022-08-29T10:18:58.532Z,4.16
2022-08-29T10:20:59.870Z,4.16
2022-08-29T10:23:01.346Z,4.16
2022-08-29T10:25:02.666Z,4.16
2022-08-29T10:29:04.411Z,4.17
2022-08-29T10:31:05.453Z,4.16
2022-08-29T10:33:06.996Z,4.16
2022-08-29T10:35:08.391Z,4.16
2022-08-29T10:39:10.740Z,4.16
2022-08-29T10:41:11.841Z,4.16
2022-08-29T10:43:13.284Z,4.16
2022-08-29T10:45:14.175Z,4.16
2022-08-29T10:47:15.032Z,4.16
2022-08-29T10:49:16.125Z,4.16
2022-08-29T10:51:17.349Z,4.16
2022-08-29T10:55:19.761Z,4.16
2022-08-29T10:57:20.889Z,4.16
2022-08-29T11:01:22.657Z,4.16
2022-08-29T11:03:23.772Z,4.16
2022-08-29T11:05:24.748Z,4.16
2022-08-29T11:09:27.375Z,4.16
2022-08-29T11:13:30.048Z,4.16
2022-08-29T11:17:32.304Z,4.16
2022-08-29T11:19:33.908Z,4.16
2022-08-29T11:21:35.094Z,4.15
2022-08-29T11:23:36.655Z,4.16
2022-08-29T11:26:21.228Z,4.15
2022-08-29T11:28:22.804Z,4.16
2022-08-29T11:32:25.410Z,4.15
2022-08-29T11:34:26.327Z,4.15
2022-08-29T11:38:28.634Z,4.15
2022-08-29T11:40:48.355Z,4.15
2022-08-29T11:42:51.249Z,4.16
2022-08-29T11:44:32.230Z,4.15
2022-08-29T11:48:34.515Z,4.15
2022-08-29T11:50:35.364Z,4.16
2022-08-29T11:54:37.467Z,4.15
2022-08-29T11:56:38.944Z,4.15
2022-08-29T11:58:40.594Z,4.15
2022-08-29T12:00:41.440Z,4.15
2022-08-29T12:04:43.822Z,4.15
2022-08-29T12:06:44.547Z,4.15
2022-08-29T12:08:45.739Z,4.15
2022-08-29T12:10:46.705Z,4.15
2022-08-29T12:12:47.684Z,4.15
2022-08-29T12:14:48.545Z,4.15
2022-08-29T12:16:49.710Z,4.15
2022-08-29T12:18:50.787Z,4.15
2022-08-29T12:22:53.807Z,4.15
2022-08-29T12:24:57.316Z,4.15
2022-08-29T12:26:56.110Z,4.15
2022-08-29T12:30:59.416Z,4.14
2022-08-29T12:33:00.387Z,4.14
2022-08-29T12:35:01.343Z,4.14
2022-08-29T12:37:02.769Z,4.14
2022-08-29T12:41:05.032Z,4.14
2022-08-29T12:43:06.512Z,4.14
2022-08-29T12:45:07.426Z,4.14
2022-08-29T12:47:08.982Z,4.14
2022-08-29T12:49:10.465Z,4.15
2022-08-29T12:51:11.518Z,4.14
2022-08-29T12:53:13.040Z,4.14
2022-08-29T12:55:14.010Z,4.14
2022-08-29T12:57:15.117Z,4.14
2022-08-29T12:59:16.457Z,4.14
2022-08-29T13:03:18.614Z,4.14
2022-08-29T13:05:19.899Z,4.14
2022-08-29T13:09:22.544Z,4.17
2022-08-29T13:13:25.151Z,4.18
2022-08-29T13:15:28.657Z,4.18
2022-08-29T13:17:26.840Z,4.18
2022-08-29T13:19:28.154Z,4.18
2022-08-29T13:21:29.559Z,4.18
2022-08-29T13:23:30.990Z,4.19
2022-08-29T13:25:32.610Z,4.19
2022-08-29T13:31:36.147Z,4.19
2022-08-29T13:33:36.930Z,4.19
2022-08-29T13:35:37.821Z,4.19
2022-08-29T13:39:41.530Z,4.19
2022-08-29T13:41:41.160Z,4.19
2022-08-29T13:45:44.472Z,4.2
2022-08-29T13:47:46.159Z,4.2
2022-08-29T13:49:47.657Z,4.2
2022-08-29T13:51:48.674Z,4.2
2022-08-29T13:53:49.816Z,4.2
2022-08-29T13:55:50.824Z,4.2
2022-08-29T13:57:52.296Z,4.2
2022-08-29T13:59:53.598Z,4.2
2022-08-29T14:02:09.971Z,4.2
2022-08-29T14:03:56.306Z,4.2
2022-08-29T14:05:57.475Z,4.2
2022-08-29T14:07:58.368Z,4.2
2022-08-29T14:09:59.285Z,4.2
2022-08-29T14:12:00.245Z,4.2
2022-08-29T14:14:01.394Z,4.2
2022-08-29T14:18:03.740Z,4.2
2022-08-29T14:20:04.711Z,4.19
2022-08-29T14:22:05.817Z,4.19
2022-08-29T14:24:07.355Z,4.19
2022-08-29T14:26:08.471Z,4.19
2022-08-29T14:28:09.909Z,4.19
2022-08-29T14:30:10.947Z,4.19
2022-08-29T14:32:11.835Z,4.19
2022-08-29T14:34:13.204Z,4.19
2022-08-29T14:36:14.684Z,4.19
2022-08-29T14:40:21.807Z,4.19
2022-08-29T14:44:20.314Z,4.19
2022-08-29T14:46:20.818Z,4.19
2022-08-29T14:48:22.227Z,4.19
2022-08-29T14:50:23.090Z,4.18
2022-08-29T14:54:25.292Z,4.19
2022-08-29T14:56:46.820Z,4.18
2022-08-29T14:58:27.962Z,4.19
2022-08-29T15:00:29.450Z,4.18
2022-08-29T15:02:30.679Z,4.19
2022-08-29T15:04:35.145Z,4.18
2022-08-29T15:06:32.839Z,4.18
2022-08-29T15:10:35.182Z,4.18
2022-08-29T15:12:35.967Z,4.19
2022-08-29T15:14:37.671Z,4.18
2022-08-29T15:16:38.812Z,4.18
2022-08-29T15:19:24.759Z,4.18
2022-08-29T15:20:44.943Z,4.18
2022-08-29T15:22:42.189Z,4.18
2022-08-29T15:26:44.760Z,4.18
2022-08-29T15:28:45.845Z,4.18
2022-08-29T15:30:47.711Z,4.17
2022-08-29T15:32:49.201Z,4.18
2022-08-29T15:34:49.394Z,4.18
2022-08-29T15:36:50.226Z,4.18
2022-08-29T15:38:51.916Z,4.18
2022-08-29T15:42:54.269Z,4.18
2022-08-29T15:44:55.044Z,4.17
2022-08-29T15:46:55.983Z,4.17
2022-08-29T15:48:56.829Z,4.17
2022-08-29T15:52:58.943Z,4.17
2022-08-29T15:55:00.167Z,4.17
2022-08-29T15:57:01.193Z,4.17
2022-08-29T15:59:02.930Z,4.17
2022-08-29T16:01:04.021Z,4.17
2022-08-29T16:03:05.710Z,4.17
2022-08-29T16:05:07.360Z,4.17
2022-08-29T16:09:15.024Z,4.17
2022-08-29T16:11:10.777Z,4.17
2022-08-29T16:13:11.996Z,4.17
2022-08-29T16:15:13.482Z,4.17
2022-08-29T16:17:14.353Z,4.17
2022-08-29T16:19:15.162Z,4.17
2022-08-29T16:23:18.065Z,4.17
2022-08-29T16:25:19.573Z,4.17
2022-08-29T16:27:20.525Z,4.17
2022-08-29T16:29:26.690Z,4.17
2022-08-29T16:31:22.903Z,4.17
2022-08-29T16:33:24.600Z,4.17
2022-08-29T16:35:26.363Z,4.17
2022-08-29T16:37:27.463Z,4.17
2022-08-29T16:41:30.199Z,4.17
2022-08-29T16:43:30.965Z,4.17
2022-08-29T16:47:33.679Z,4.17
2022-08-29T16:49:34.417Z,4.17
2022-08-29T16:51:35.550Z,4.17
2022-08-29T16:53:38.644Z,4.17
2022-08-29T16:57:38.805Z,4.17
2022-08-29T16:59:39.577Z,4.17
2022-08-29T17:01:40.567Z,4.16
2022-08-29T17:03:42.103Z,4.17
2022-08-29T17:07:44.901Z,4.16
2022-08-29T17:09:46.214Z,4.17
2022-08-29T17:13:49.469Z,4.16
2022-08-29T17:15:51.114Z,4.16
2022-08-29T17:17:52.020Z,4.16
2022-08-29T17:19:53.113Z,4.16
2022-08-29T17:21:54.146Z,4.17
2022-08-29T17:23:55.678Z,4.16
2022-08-29T17:25:56.947Z,4.16
2022-08-29T17:30:00.240Z,4.16
2022-08-29T17:32:01.412Z,4.16
2022-08-29T17:34:03.127Z,4.16
2022-08-29T17:36:03.955Z,4.16
2022-08-29T17:40:06.189Z,4.16
2022-08-29T17:42:07.907Z,4.16
2022-08-29T17:44:08.827Z,4.16
2022-08-29T17:46:09.958Z,4.16
2022-08-29T17:48:11.252Z,4.16
2022-08-29T17:50:12.859Z,4.16
2022-08-29T17:52:13.966Z,4.16
2022-08-29T17:56:16.654Z,4.16
2022-08-29T17:58:17.594Z,4.16
2022-08-29T18:02:19.620Z,4.16
2022-08-29T18:04:20.636Z,4.16
2022-08-29T18:06:21.686Z,4.16
2022-08-29T18:08:23.127Z,4.16
2022-08-29T18:11:08.594Z,4.16
2022-08-29T18:13:10.234Z,4.16
2022-08-29T18:15:11.458Z,4.16
2022-08-29T18:17:13.146Z,4.16
2022-08-29T18:19:14.039Z,4.16
2022-08-29T18:23:16.382Z,4.15
2022-08-29T18:25:22.231Z,4.16
2022-08-29T18:27:19.057Z,4.15
2022-08-29T18:29:20.114Z,4.15
2022-08-29T18:33:22.877Z,4.15
2022-08-29T18:35:23.796Z,4.15
2022-08-29T18:37:25.179Z,4.15
2022-08-29T18:39:26.708Z,4.15
2022-08-29T18:41:27.631Z,4.15
2022-08-29T18:43:28.948Z,4.15
2022-08-29T18:45:30.274Z,4.15
2022-08-29T18:49:33.255Z,4.15
2022-08-29T18:51:34.421Z,4.15
2022-08-29T18:53:44.581Z,4.15
2022-08-29T18:55:36.985Z,4.15
2022-08-29T18:57:37.980Z,4.15
2022-08-29T18:59:39.918Z,4.15
2022-08-29T19:01:41.698Z,4.15
2022-08-29T19:05:44.749Z,4.15
2022-08-29T19:07:45.629Z,4.14
2022-08-29T19:09:46.865Z,4.14
2022-08-29T19:11:48.434Z,4.14
2022-08-29T19:13:52.178Z,4.14
2022-08-29T19:15:51.358Z,4.14
2022-08-29T19:17:52.576Z,4.14
2022-08-29T19:21:54.911Z,4.14
2022-08-29T19:23:56.254Z,4.14
2022-08-29T19:25:57.185Z,4.14
2022-08-29T19:30:00.261Z,4.14
2022-08-29T19:34:03.051Z,4.14
2022-08-29T19:38:05.262Z,4.14
2022-08-29T19:40:06.736Z,4.14
2022-08-29T19:42:08.299Z,4.14
2022-08-29T19:44:09.324Z,4.14
2022-08-29T19:48:14.973Z,4.14
2022-08-29T19:50:13.400Z,4.14
2022-08-29T19:52:15.025Z,4.14
2022-08-29T19:54:16.818Z,4.14
2022-08-29T19:56:18.121Z,4.14
2022-08-29T19:58:19.770Z,4.14
2022-08-29T20:00:20.932Z,4.14
2022-08-29T20:04:23.856Z,4.14
2022-08-29T20:06:24.837Z,4.14
2022-08-29T20:08:26.656Z,4.14
2022-08-29T20:10:28.022Z,4.14
2022-08-29T20:14:30.880Z,4.14
2022-08-29T20:16:32.008Z,4.14
2022-08-29T20:18:33.303Z,4.14
2022-08-29T20:20:35.019Z,4.14
2022-08-29T20:22:36.148Z,4.13
2022-08-29T20:24:37.980Z,4.13
2022-08-29T20:26:38.932Z,4.13
2022-08-29T20:30:41.313Z,4.14
2022-08-29T20:32:43.663Z,4.13
2022-08-29T20:34:44.015Z,4.13
2022-08-29T20:36:45.073Z,4.13
2022-08-29T20:38:46.090Z,4.13
2022-08-29T20:40:47.421Z,4.13
2022-08-29T20:42:49.058Z,4.13
2022-08-29T20:46:51.737Z,4.13
2022-08-29T20:48:53.234Z,4.13
2022-08-29T20:50:54.599Z,4.13
2022-08-29T20:52:55.789Z,4.13
2022-08-29T20:56:59.439Z,4.13
2022-08-29T20:59:00.259Z,4.13
2022-08-29T21:03:03.075Z,4.13
2022-08-29T21:05:03.997Z,4.13
2022-08-29T21:07:04.982Z,4.13
2022-08-29T21:09:06.046Z,4.13
2022-08-29T21:13:09.208Z,4.13
2022-08-29T21:15:10.467Z,4.13
2022-08-29T21:19:13.232Z,4.12
2022-08-29T21:21:15.131Z,4.12
2022-08-29T21:23:16.996Z,4.13
2022-08-29T21:25:18.487Z,4.12
2022-08-29T21:29:20.840Z,4.12
2022-08-29T21:31:22.417Z,4.12
2022-08-29T21:33:23.669Z,4.12
2022-08-29T21:35:25.266Z,4.12
2022-08-29T21:39:29.209Z,4.12
2022-08-29T21:41:29.605Z,4.12
2022-08-29T21:43:31.283Z,4.12
2022-08-29T21:45:33.181Z,4.12
2022-08-29T21:47:34.927Z,4.12
2022-08-29T21:49:36.094Z,4.12
2022-08-29T21:51:37.839Z,4.12
2022-08-29T21:55:40.840Z,4.12
2022-08-29T21:57:42.258Z,4.12
2022-08-29T22:01:44.733Z,4.12
2022-08-29T22:03:50.052Z,4.12
2022-08-29T22:05:47.793Z,4.12
2022-08-29T22:07:49.292Z,4.12
2022-08-29T22:11:52.548Z,4.12
2022-08-29T22:13:53.732Z,4.12
2022-08-29T22:15:55.276Z,4.12
2022-08-29T22:17:56.966Z,4.12
2022-08-29T22:19:58.218Z,4.12
2022-08-29T22:22:00.094Z,4.12
2022-08-29T22:24:01.651Z,4.12
2022-08-29T22:26:03.143Z,4.12
2022-08-29T22:28:05.018Z,4.12
2022-08-29T22:32:08.537Z,4.12
2022-08-29T22:34:10.251Z,4.11
2022-08-29T22:38:12.824Z,4.11
2022-08-29T22:40:14.312Z,4.11
2022-08-29T22:42:15.978Z,4.12
2022-08-29T22:44:59.418Z,4.12
2022-08-29T22:46:18.242Z,4.11
2022-08-29T22:48:19.251Z,4.12
2022-08-29T22:52:22.041Z,4.11
2022-08-29T22:54:23.789Z,4.11
2022-08-29T22:56:25.485Z,4.11
2022-08-29T22:58:27.002Z,4.11
2022-08-29T23:00:27.722Z,4.11
2022-08-29T23:02:29.654Z,4.11
2022-08-29T23:04:30.746Z,4.11
2022-08-29T23:06:32.004Z,4.11
2022-08-29T23:10:35.266Z,4.11
2022-08-29T23:12:37.014Z,4.11
2022-08-29T23:14:38.526Z,4.11
2022-08-29T23:16:40.142Z,4.11
2022-08-29T23:20:46.807Z,4.11
2022-08-29T23:22:45.380Z,4.11
2022-08-29T23:24:53.986Z,4.11
2022-08-29T23:26:49.033Z,4.11
2022-08-29T23:28:50.825Z,4.11
2022-08-29T23:30:52.735Z,4.11
2022-08-29T23:32:53.799Z,4.1
2022-08-29T23:36:56.301Z,4.11
2022-08-29T23:38:57.309Z,4.1
2022-08-29T23:40:58.243Z,4.1
2022-08-29T23:42:59.581Z,4.11
2022-08-29T23:45:01.116Z,4.1
2022-08-29T23:47:02.732Z,4.1
2022-08-29T23:49:04.253Z,4.1
2022-08-29T23:51:05.172Z,4.1
2022-08-29T23:53:06.791Z,4.1
2022-08-29T23:55:08.517Z,4.1
2022-08-29T23:57:09.984Z,4.1
2022-08-29T23:59:11.416Z,4.1
